Latest Weather Observations for Cape Grim

IDT60801

Issued at 5:31 am EST Tuesday 21 May 2019 (issued every 10 minutes, with the page automatically refreshed every 10 minutes)

About weather observations | Map of weather stations | Latest weather observations for TAS | Other Formats
Station Details ID: 091331 Name: CAPE GRIM Lat: -40.68 Lon: 144.69 Height: 86.0 m
Data from the previous 72 hours. | See also: Recent months at Cape Grim
Date/Time
EST
Temp
°C
App
Temp
°C
Dew
Point
°C
Rel
Hum
%
Delta-T
°C
Wind Press
QNH
hPa
Press
MSL
hPa
Rain since
9am
mm
Dir  Spd
km/h
Gust
km/h
Spd
kts
Gust
kts
21/05:30am 14.0 8.1 13.5 97 0.3 WNW 37 50 20 27 1016.7 1016.8 7.0
21/05:00am 13.8 6.8 13.6 99 0.1 WNW 43 56 23 30 1016.5 1016.6 7.0
21/04:44am 14.1 7.5 13.8 98 0.2 WNW 41 59 22 32 1016.3 1016.4 7.0
21/04:30am 14.0 8.6 13.8 99 0.1 WNW 35 46 19 25 1016.4 1016.5 7.0
21/04:00am 13.8 8.7 13.8 100 0.0 W 33 43 18 23 1016.2 1016.3 7.0
21/03:30am 12.9 6.3 12.7 99 0.1 WNW 39 57 21 31 1016.2 1016.3 7.0
21/03:27am 13.5 8.0 13.5 100 0.0 WNW 35 54 19 29 1016.3 1016.4 7.0
21/03:00am 13.5 7.6 13.5 100 0.0 WNW 37 54 20 29 1016.2 1016.3 7.0
21/02:58am 13.6 8.1 13.6 100 0.0 WNW 35 54 19 29 1016.2 1016.3 7.0
21/02:30am 13.3 6.9 13.3 100 0.0 WNW 39 48 21 26 1016.3 1016.4 7.0
21/02:00am 13.8 7.6 13.8 100 0.0 WNW 39 54 21 29 1016.1 1016.2 7.0
21/01:30am 13.4 6.3 13.4 100 0.0 W 43 57 23 31 1016.0 1016.1 7.0
21/01:00am 13.3 6.6 13.3 100 0.0 WNW 41 52 22 28 1015.9 1016.0 7.0
21/12:40am 13.7 6.7 13.7 100 0.0 WNW 43 65 23 35 1016.0 1016.1 6.6
21/12:30am 13.4 6.7 13.4 100 0.0 WNW 41 54 22 29 1016.0 1016.1 6.6
21/12:05am 13.4 6.1 13.4 100 0.0 WNW 44 63 24 34 1015.9 1016.0 6.6
21/12:00am 13.6 6.0 13.6 100 0.0 WNW 46 63 25 34 1015.8 1015.9 6.6
 
Date/Time
EST
Temp
°C
App
Temp
°C
Dew
Point
°C
Rel
Hum
%
Delta-T
°C
Wind Press
QNH
hPa
Press
MSL
hPa
Rain since
9am
mm
Dir  Spd
km/h
Gust
km/h
Spd
kts
Gust
kts
20/11:47pm 14.0 7.9 14.0 100 0.0 WNW 39 57 21 31 1015.8 1015.9 6.4
20/11:30pm 13.7 6.7 13.7 100 0.0 WNW 43 54 23 29 1015.7 1015.8 6.4
20/11:00pm 13.6 6.4 13.6 100 0.0 WNW 44 54 24 29 1015.6 1015.6 6.0
20/10:30pm 13.3 5.2 13.3 100 0.0 WNW 48 67 26 36 1015.7 1015.8 6.0
20/10:19pm 14.0 6.8 13.7 98 0.2 WNW 44 63 24 34 1015.4 1015.4 6.0
20/10:00pm 14.5 7.4 13.5 94 0.6 WNW 43 57 23 31 1015.5 1015.5 5.6
20/09:30pm 14.4 7.9 13.9 97 0.3 NW 41 61 22 33 1015.5 1015.5 5.6
20/09:11pm 14.4 7.2 13.6 95 0.4 WNW 44 63 24 34 1015.4 1015.4 5.6
20/09:00pm 14.2 6.5 13.2 94 0.6 WNW 46 59 25 32 1015.4 1015.4 5.6
20/08:46pm 14.3 7.1 13.7 96 0.3 NW 44 65 24 35 1015.3 1015.3 5.6
20/08:30pm 14.4 8.0 14.2 99 0.1 NW 41 56 22 30 1015.5 1015.5 5.6
20/08:10pm 14.2 8.0 13.9 98 0.2 NW 39 59 21 32 1015.4 1015.4 5.6
20/08:00pm 14.5 9.7 14.5 100 0.0 NW 33 44 18 24 1015.4 1015.4 5.6
20/07:30pm 14.5 9.9 14.5 100 0.0 NW 32 41 17 22 1015.3 1015.3 5.6
20/07:00pm 14.4 8.8 14.4 100 0.0 NW 37 46 20 25 1015.2 1015.2 5.6
20/06:30pm 14.1 9.1 14.1 100 0.0 NNW 33 44 18 24 1015.2 1015.2 5.6
20/06:00pm 14.5 11.0 14.5 100 0.0 N 26 33 14 18 1014.8 1014.8 5.6
20/05:30pm 14.4 10.9 14.4 100 0.0 NNW 26 32 14 17 1015.0 1015.0 5.6
20/05:00pm 14.5 11.0 14.5 100 0.0 NNW 26 33 14 18 1015.0 1015.0 5.6
20/04:30pm 14.9 10.4 14.9 100 0.0 NNW 32 43 17 23 1014.9 1014.9 5.6
20/04:00pm 15.2 11.2 15.2 100 0.0 N 30 39 16 21 1014.8 1014.8 5.6
20/03:30pm 15.2 9.9 15.2 100 0.0 N 37 44 20 24 1014.8 1014.8 5.6
20/03:00pm 15.0 9.6 15.0 100 0.0 N 37 44 20 24 1014.9 1014.9 5.6
20/02:30pm 14.6 9.4 14.6 100 0.0 N 35 43 19 23 1015.2 1015.2 5.6
20/02:00pm 14.0 8.6 14.0 100 0.0 N 35 44 19 24 1015.5 1015.5 5.6
20/01:30pm 13.7 8.6 13.7 100 0.0 NNE 33 41 18 22 1015.7 1015.8 4.2
20/01:00pm 13.5 8.0 13.5 100 0.0 NNE 35 43 19 23 1015.9 1016.0 3.8
20/12:30pm 13.6 8.5 13.6 100 0.0 NNE 33 43 18 23 1016.6 1016.7 3.4
20/12:00pm 13.7 8.2 13.7 100 0.0 NE 35 44 19 24 1017.2 1017.3 3.0
20/11:30am 13.6 7.3 13.6 100 0.0 NE 39 48 21 26 1017.1 1017.2 3.0
20/11:00am 13.2 7.2 13.2 100 0.0 NE 37 46 20 25 1018.5 1018.5 2.8
20/10:30am 13.2 8.1 13.2 100 0.0 NE 32 41 17 22 1018.4 1018.4 2.2
20/10:00am 13.2 8.9 13.2 100 0.0 NE 28 35 15 19 1019.5 1019.5 1.2
20/09:30am 13.3 8.3 13.3 100 0.0 NE 32 39 17 21 1019.6 1019.6 0.4
20/09:00am 13.5 8.9 13.5 100 0.0 NE 30 35 16 19 1019.4 1019.4 2.8
20/08:30am 13.6 8.7 13.6 100 0.0 NE 32 39 17 21 1020.2 1020.2 2.6
20/08:00am 13.6 8.7 13.6 100 0.0 NE 32 37 17 20 1020.0 1020.0 1.6
20/07:30am 13.5 8.5 13.5 100 0.0 NE 32 41 17 22 1019.9 1019.9 1.4
20/07:00am 14.0 9.6 14.0 100 0.0 ENE 30 35 16 19 1020.4 1020.4 0.8
20/06:30am 14.0 10.0 14.0 100 0.0 ENE 28 35 15 19 1020.4 1020.4 0.6
20/06:00am 13.9 10.2 13.9 100 0.0 ENE 26 32 14 17 1020.7 1020.7 0.4
20/05:30am 13.7 9.6 13.7 100 0.0 ENE 28 35 15 19 1020.7 1020.7 0.4
20/05:00am 13.8 8.9 13.8 100 0.0 ENE 32 39 17 21 1020.8 1020.8 0.4
20/04:30am 13.7 9.9 13.7 100 0.0 ENE 26 32 14 17 1021.0 1021.0 0.4
20/04:00am 13.8 10.1 13.8 100 0.0 ENE 26 30 14 16 1021.5 1021.5 0.4
20/03:30am 13.7 9.9 13.7 100 0.0 ENE 26 32 14 17 1021.5 1021.5 0.4
20/03:00am 13.7 9.6 13.7 100 0.0 ENE 28 33 15 18 1021.9 1021.9 0.4
20/02:30am 13.4 9.2 13.4 100 0.0 ENE 28 35 15 19 1022.2 1022.2 0.4
20/02:00am 13.5 8.9 13.5 100 0.0 ENE 30 35 16 19 1022.2 1022.2 0.4
20/01:30am 13.5 8.5 13.5 100 0.0 ENE 32 37 17 20 1022.4 1022.4 0.4
20/01:00am 13.5 8.5 13.5 100 0.0 ENE 32 39 17 21 1022.5 1022.5 0.2
20/12:30am 13.5 8.5 13.5 100 0.0 ENE 32 39 17 21 1022.7 1022.7 0.2
20/12:00am 13.5 8.3 13.5 100 0.0 ENE 33 43 18 23 1022.6 1022.6 0.2
 
Date/Time
EST
Temp
°C
App
Temp
°C
Dew
Point
°C
Rel
Hum
%
Delta-T
°C
Wind Press
QNH
hPa
Press
MSL
hPa
Rain since
9am
mm
Dir  Spd
km/h
Gust
km/h
Spd
kts
Gust
kts
19/11:30pm 13.4 8.2 13.4 100 0.0 ENE 33 43 18 23 1022.7 1022.7 0.2
19/11:00pm 13.1 8.4 13.1 100 0.0 E 30 39 16 21 1023.2 1023.2 0.2
19/10:30pm 12.8 8.4 12.8 100 0.0 E 28 33 15 18 1023.7 1023.7 0.2
19/10:00pm 13.0 8.2 13.0 100 0.0 E 30 35 16 19 1023.9 1023.9 0.2
19/09:30pm 12.5 7.6 12.5 100 0.0 E 30 35 16 19 1023.8 1023.8 0.2
19/09:00pm 12.8 7.6 12.8 100 0.0 ENE 32 39 17 21 1023.9 1023.9 0.0
19/08:30pm 13.1 7.4 13.1 100 0.0 ENE 35 41 19 22 1024.1 1024.1 0.0
19/08:00pm 12.8 8.4 12.8 100 0.0 E 28 35 15 19 1024.3 1024.3 0.0
19/07:30pm 12.9 7.7 12.9 100 0.0 ENE 32 37 17 20 1024.4 1024.4 0.0
19/07:00pm 13.2 8.1 13.2 100 0.0 ENE 32 39 17 21 1024.6 1024.6 0.0
19/06:30pm 12.8 8.0 12.8 100 0.0 ENE 30 35 16 19 1024.5 1024.5 0.0
19/06:00pm 12.9 8.1 12.9 100 0.0 E 30 33 16 18 1024.4 1024.4 0.0
19/05:30pm 13.2 8.1 13.2 100 0.0 ENE 32 39 17 21 1024.5 1024.5 0.0
19/05:00pm 13.5 8.3 13.5 100 0.0 E 33 41 18 22 1024.5 1024.5 0.0
19/04:30pm 13.7 8.2 13.7 100 0.0 E 35 43 19 23 1024.7 1024.7 0.0
19/04:00pm 14.0 9.0 14.0 100 0.0 E 33 41 18 22 1024.7 1024.7 0.0
19/03:30pm 14.7 9.5 14.5 99 0.1 E 35 44 19 24 1024.8 1024.8 0.0
19/03:00pm 14.9 10.0 14.4 97 0.3 ENE 33 41 18 22 1025.1 1025.1 0.0
19/02:30pm 15.2 10.4 14.6 96 0.3 ENE 33 41 18 22 1025.2 1025.2 0.0
19/02:00pm 15.1 10.3 14.5 96 0.3 ENE 33 43 18 23 1025.4 1025.5 0.0
19/01:30pm 15.2 10.0 14.6 96 0.3 ENE 35 43 19 23 1025.8 1025.9 0.0
19/01:00pm 15.2 9.7 14.7 97 0.3 ENE 37 43 20 23 1026.1 1026.2 0.0
19/12:30pm 15.0 9.8 14.5 97 0.3 ENE 35 43 19 23 1026.7 1026.8 0.0
19/12:00pm 14.0 9.0 14.0 100 0.0 ENE 33 41 18 22 1027.3 1027.4 0.0
19/11:30am 13.8 8.9 13.8 100 0.0 ENE 32 41 17 22 1027.5 1027.6 0.0
19/11:00am 13.3 8.3 13.3 100 0.0 E 32 35 17 19 1028.0 1028.1 0.0
19/10:30am 12.4 8.2 12.4 100 0.0 E 26 30 14 16 1028.2 1028.3 0.0
19/10:00am 10.6 6.3 10.6 100 0.0 E 24 28 13 15 1028.3 1028.4 0.0
19/09:30am 9.5 4.5 9.5 100 0.0 E 26 30 14 16 1028.4 1028.5 0.0
19/09:00am 8.7 3.5 8.7 100 0.0 E 26 28 14 15 1028.6 1028.7 0.4
19/08:30am 8.2 2.8 8.2 100 0.0 E 26 30 14 16 1028.6 1028.7 0.4
19/08:00am 8.2 2.8 8.2 100 0.0 E 26 30 14 16 1028.6 1028.7 0.4
19/07:30am 8.0 2.6 8.0 100 0.0 E 26 28 14 15 1028.5 1028.6 0.4
19/07:00am 8.1 3.5 8.1 100 0.0 E 22 26 12 14 1028.6 1028.7 0.4
19/06:30am 7.8 3.1 7.8 100 0.0 E 22 28 12 15 1028.5 1028.6 0.4
19/06:00am 8.1 3.9 8.1 100 0.0 ENE 20 24 11 13 1028.5 1028.6 0.4
19/05:30am 7.9 3.6 7.9 100 0.0 ENE 20 20 11 11 1028.4 1028.5 0.4
19/05:00am 7.3 3.1 7.3 100 0.0 E 19 20 10 11 1028.3 1028.4 0.4
19/04:30am 8.3 4.3 8.3 100 0.0 E 19 19 10 10 1028.3 1028.4 0.4
19/04:00am 8.6 5.1 8.6 100 0.0 E 17 19 9 10 1028.2 1028.3 0.2
19/03:30am 8.8 5.7 8.7 99 0.0 E 15 17 8 9 1028.2 1028.3 0.2
19/03:00am 10.1 8.4 10.0 99 0.1 SE 9 11 5 6 1028.5 1028.6 0.2
19/02:30am 10.4 8.8 10.2 99 0.1 SE 9 11 5 6 1028.7 1028.8 0.2
19/02:00am 10.3 9.2 10.1 99 0.1 SE 6 9 3 5 1028.8 1028.9 0.2
19/01:30am 10.9 11.1 10.7 99 0.1 CALM 0 0 0 0 1029.2 1029.3 0.2
19/01:00am 10.9 9.8 10.7 99 0.1 SE 7 9 4 5 1029.4 1029.5 0.2
19/12:30am 10.1 7.2 9.8 98 0.2 SE 15 15 8 8 1029.3 1029.4 0.2
19/12:00am 11.9 12.0 11.6 98 0.2 SSE 2 6 1 3 1029.4 1029.5 0.2
 
Date/Time
EST
Temp
°C
App
Temp
°C
Dew
Point
°C
Rel
Hum
%
Delta-T
°C
Wind Press
QNH
hPa
Press
MSL
hPa
Rain since
9am
mm
Dir  Spd
km/h
Gust
km/h
Spd
kts
Gust
kts
18/11:30pm 11.5 10.1 11.0 97 0.3 SSE 9 9 5 5 1029.9 1029.9 0.2
18/11:00pm 11.3 10.0 11.1 99 0.1 SSE 9 9 5 5 1030.0 1030.0 0.0
18/10:30pm 11.2 9.4 10.9 98 0.2 SSE 11 11 6 6 1030.1 1030.1 0.0
18/10:00pm 11.5 10.1 11.0 97 0.3 SSE 9 11 5 6 1030.3 1030.3 0.0
18/09:30pm 11.7 10.4 11.1 96 0.3 S 9 9 5 5 1030.3 1030.3 0.0
18/09:00pm 11.7 10.1 11.4 98 0.2 S 11 13 6 7 1030.3 1030.3 0.0
18/08:30pm 11.5 9.4 11.2 98 0.2 S 13 15 7 8 1030.2 1030.2 0.0
18/08:00pm 12.1 10.6 11.9 99 0.1 S 11 15 6 8 1030.0 1030.0 0.0
18/07:30pm 12.4 11.4 12.2 99 0.1 S 9 11 5 6 1029.9 1029.9 0.0
18/07:00pm 12.7 11.4 12.5 99 0.1 SSW 11 13 6 7 1029.8 1029.8 0.0
18/06:30pm 13.0 11.4 12.8 99 0.1 SSW 13 17 7 9 1029.4 1029.5 0.0
18/06:00pm 13.1 11.5 12.8 98 0.2 SSW 13 17 7 9 1029.2 1029.3 0.0
18/05:30pm 12.9 12.2 12.1 95 0.4 SW 7 11 4 6 1028.8 1028.9 0.0
18/05:00pm 13.5 12.5 12.4 93 0.6 SW 9 13 5 7 1028.7 1028.8 0.0
18/04:30pm 14.1 12.9 12.7 91 0.8 SW 11 15 6 8 1028.7 1028.8 0.0
18/04:00pm 14.0 12.2 12.0 88 1.1 SW 13 15 7 8 1028.7 1028.8 0.0
18/03:30pm 14.9 13.3 12.9 88 1.1 SW 13 17 7 9 1028.8 1028.9 0.0
18/03:00pm 14.7 13.9 12.9 89 1.0 W 9 15 5 8 1028.8 1028.9 0.0
18/02:30pm 14.8 13.9 12.7 87 1.2 W 9 13 5 7 1029.1 1029.2 0.0
18/02:00pm 15.4 14.2 12.9 85 1.4 W 11 15 6 8 1029.2 1029.3 0.0
18/01:30pm 15.5 14.5 13.3 87 1.2 W 11 15 6 8 1029.5 1029.6 0.0
18/01:00pm 15.4 14.4 13.4 88 1.1 W 11 13 6 7 1029.9 1029.9 0.0
18/12:30pm 15.7 14.8 13.7 88 1.1 W 11 13 6 7 1030.0 1030.0 0.0
18/12:00pm 15.7 14.7 13.5 87 1.2 WNW 11 13 6 7 1030.3 1030.3 0.0
18/11:30am 15.4 14.9 13.8 90 0.9 NW 9 13 5 7 1030.6 1030.6 0.0
18/11:00am 15.9 15.6 14.4 91 0.9 WNW 9 11 5 6 1030.6 1030.6 0.0
18/10:30am 15.1 15.0 14.0 93 0.6 WSW 7 9 4 5 1030.4 1030.4 0.0
18/10:00am 14.9 14.8 13.9 94 0.6 WSW 7 9 4 5 1030.6 1030.6 0.0
18/09:30am 14.7 15.2 14.1 96 0.3 WSW 4 9 2 5 1030.5 1030.5 0.0
18/09:00am 14.2 13.6 13.6 96 0.3 WSW 9 11 5 6 1030.3 1030.3 0.2
18/08:30am 13.8 13.2 13.5 98 0.2 W 9 13 5 7 1030.2 1030.2 0.2
18/08:00am 13.4 12.7 13.2 99 0.1 W 9 13 5 7 1030.0 1030.0 0.2
18/07:30am 12.3 10.9 12.1 99 0.1 W 11 13 6 7 1029.4 1029.5 0.2
18/07:00am 12.4 11.0 12.2 99 0.1 NW 11 15 6 8 1028.9 1029.0 0.2
18/06:30am 12.7 10.3 12.7 100 0.0 NW 17 19 9 10 1028.6 1028.7 0.2
18/06:00am 12.7 10.7 12.7 100 0.0 NW 15 20 8 11 1028.6 1028.7 0.2

Other formats

Comma delimited format used in spreadsheet applications
http://www.bom.gov.au/fwo/IDT60801/IDT60801.95954.axf

JavaScript Object Notation format (JSON) in row-major order
http://www.bom.gov.au/fwo/IDT60801/IDT60801.95954.json

Data quality

Most of these data are generated automatically and are frequently updated. Quality checks on data are not normally performed. It is possible for incorrect values to appear. Refer to information at About Latest Weather Observations and please check the disclaimer before using these data.